• Join FlightAware (Why Join?)
  • Login
  • US Flag 
04:37AM EDT


 

Airport Tracker/Info


-or-


 

Live Flight TrackerFlight Track Log ✈ DAL6036 ✈ 26-Apr-2013 ✈ KRIC - KDTW

Flight Track Log - Related Links

Times and Time Zones

All times are in EDT time to prevent confusion due to time zone crossing. See the DAL6036 flight status page for this flight to view local times or setup timezone preferences in your user account.

Time Position Orientation Groundspeed Altitude Reporting Facility
EDT Latitude Longitude Course Direction KTS MPH feet Rate Location/Type
05:23PM 37.5333 -77.3500 270° West 171 197 1,500  Level Potomac TRACON
05:24PM 37.5489 -77.3706 314° West 184 212 2,000 1,680 Climbing Washington Center
05:25PM 37.5522 -77.4281 274° West 210 242 3,900 1,860 Climbing Washington Center
05:26PM 37.5283 -77.4983 247° West 222 255 5,900 1,980 Climbing Washington Center
05:27PM 37.3950 -77.7525 257° West  Level FlightAware Approximate
05:27PM 37.5000 -77.5761 245° Southwest 234 269 7,900  Level Washington Center
05:28PM 37.3729 -77.8636 254° West  Level FlightAware Approximate
05:29PM 37.3500 -77.9742 270° West  Level FlightAware Approximate
05:29PM 37.4383 -77.7497 246° West 279 321 10,400  Level Washington Center
05:30PM 37.4033 -77.8506 246° West 298 343 12,000 1,560 Climbing Washington Center
05:31PM 37.3678 -77.9517 246° West 318 366 13,500 1,440 Climbing Washington Center
05:32PM 37.3428 -78.0578 254° West 318 366 15,000 1,380 Climbing Washington Center
05:33PM 37.3217 -78.1669 256° West 324 373 16,300 1,380 Climbing Washington Center
05:34PM 37.2964 -78.2756 254° West 324 373 17,800 1,260 Climbing Washington Center
05:35PM 37.3172 -78.3731 285° West 296 341 18,900 1,080 Climbing Washington Center
05:36PM 37.3922 -78.4594 318° Northwest 304 350 20,000 540 Climbing Washington Center
05:37PM 37.4569 -78.5456 313° West 322 371 20,000 180 Level Washington Center
05:38PM 37.5150 -78.6447 306° West 340 391 20,400 720 Climbing Washington Center
05:39PM 37.5436 -78.7481 289° West 345 397 21,500 1,080 Climbing Washington Center
05:40PM 37.5803 -78.8622 292° West 350 403 22,600 1,080 Climbing Washington Center
05:41PM 37.6125 -78.9764 290° West 350 403 23,700 1,080 Climbing Washington Center
05:42PM 37.6467 -79.0908 291° West 350 403 24,800 1,140 Climbing Washington Center
05:43PM 37.6806 -79.2131 289° West 339 390 26,100 1,020 Climbing Washington Center
05:44PM 37.7108 -79.3142 291° West 339 390 26,900 840 Climbing Washington Center
05:45PM 37.7450 -79.4261 291° West 339 390 27,800 540 Climbing Washington Center
05:46PM 37.7767 -79.5381 290° West 339 390 28,000 60 Climbing Washington Center
05:47PM 37.8103 -79.6556 290° West 344 396 28,000  Level Washington Center
05:48PM 37.8497 -79.7867 291° West 352 405 28,000  Level Washington Center
05:49PM 37.8831 -79.9042 290° West 357 411 28,000  Level Washington Center
05:50PM 37.9125 -80.0139 289° West 345 397 28,000  Level Washington Center
05:52PM 37.9725 -80.2178 291° West 334 384 28,000  Level Indianapolis Center
05:53PM 38.0031 -80.3256 290° West 334 384 28,000  Level Indianapolis Center
05:54PM 38.0394 -80.4567 289° West 338 389 28,000  Level Indianapolis Center
05:55PM 38.0675 -80.5536 290° West 336 387 28,000  Level Indianapolis Center
05:56PM 38.1053 -80.6903 289° West 340 391 28,000  Level Indianapolis Center
05:57PM 38.1381 -80.8044 290° West 342 394 28,000  Level Indianapolis Center
05:58PM 38.1703 -80.9189 290° West 343 395 28,000 300 Level Indianapolis Center
05:59PM 38.2008 -81.0308 289° West 336 387 28,700 720 Climbing Indianapolis Center
06:00PM 38.2308 -81.1422 289° West 332 382 29,600 600 Climbing Indianapolis Center
06:01PM 38.2614 -81.2528 289° West 330 380 30,000 180 Climbing Indianapolis Center
06:02PM 38.3314 -81.3297 319° Northwest 344 396 30,000  Level Indianapolis Center
06:03PM 38.4461 -81.3736 343° North 357 411 30,000  Level Indianapolis Center
06:04PM 38.5414 -81.4097 343° North 357 411 30,000  Level Indianapolis Center
06:05PM 38.6375 -81.4461 344° North 356 410 30,000 -60 Level Indianapolis Center
06:06PM 38.7311 -81.4844 342° North 353 406 29,900  Descending Indianapolis Center
06:07PM 38.8328 -81.5206 345° North 347 399 30,000  Climbing Indianapolis Center
06:08PM 38.9231 -81.5528 344° North 341 392 30,000  Level Indianapolis Center
06:09PM 39.0156 -81.5775 348° North 339 390 30,000  Level Indianapolis Center
06:10PM 39.1061 -81.6031 348° North 335 386 30,000  Level Indianapolis Center
06:11PM 39.1989 -81.6283 348° North 339 390 30,000  Level Indianapolis Center
06:12PM 39.2919 -81.6544 348° North 341 392 30,000  Level Indianapolis Center
06:14PM 39.4053 -81.6853 348° North 346 398 30,000  Level Indianapolis Center
06:15PM 39.4997 -81.7122 348° North 348 400 30,000  Level Indianapolis Center
06:16PM 39.5950 -81.7389 348° North 349 402 30,000  Level Indianapolis Center
06:17PM 39.6903 -81.7664 347° North 351 404 30,000  Level Indianapolis Center
06:18PM 39.7947 -81.7950 348° North 349 402 30,000 -60 Level Indianapolis Center
06:19PM 39.8908 -81.8239 347° North 351 404 29,900 -60 Descending Indianapolis Center
06:20PM 39.9869 -81.8503 348° North 348 400 29,900  Level Indianapolis Center
06:21PM 40.0831 -81.8786 347° North 351 404 29,900  Level Indianapolis Center
06:22PM 40.1783 -81.9067 347° North 350 403 29,900  Level Indianapolis Center
06:23PM 40.2894 -81.9378 348° North 348 400 30,000  Climbing Indianapolis Center
06:24PM 40.3858 -81.9656 348° North 350 403 30,000  Level Indianapolis Center
06:24PM 40.4483 -81.9856 346° North 345 397 30,000  Level Cleveland Center
06:25PM 40.5314 -82.0144 345° North 350 403 30,000  Level Cleveland Center
06:26PM 40.6097 -82.0819 327° Northwest 338 389 30,000 -180 Level Cleveland Center
06:27PM 40.6858 -82.1494 326° Northwest 333 383 29,700 -540 Descending Cleveland Center
06:28PM 40.7661 -82.2197 326° Northwest 333 383 29,000 -720 Descending Cleveland Center
06:29PM 40.8444 -82.2903 326° Northwest 333 383 28,300 -780 Descending Cleveland Center
06:30PM 40.9308 -82.3642 327° Northwest 338 389 27,500 -960 Descending Cleveland Center
06:31PM 41.0111 -82.4350 326° Northwest 348 400 26,400 -1,200 Descending Cleveland Center
06:32PM 41.0931 -82.5089 326° Northwest 348 400 25,200 -1,320 Descending Cleveland Center
06:33PM 41.1753 -82.5803 327° Northwest 353 406 23,800 -1,500 Descending Cleveland Center
06:34PM 41.2617 -82.6578 326° Northwest 359 413 22,200 -1,620 Descending Cleveland Center
06:35PM 41.3456 -82.7322 326° Northwest 359 413 20,600 -1,920 Descending Cleveland Center
06:37PM 41.4336 -82.8128 326° Northwest 368 423 18,200 -1,980 Descending Cleveland Center
06:37PM 41.5033 -82.8761 326° Northwest 369 425 16,700 -1,980 Descending Cleveland Center
06:38PM 41.5875 -82.9486 327° Northwest 363 418 14,500 -2,100 Descending Cleveland Center
06:39PM 41.6711 -83.0267 325° Northwest 352 405 12,500 -1,260 Descending Cleveland Center
06:40PM 41.7492 -83.0908 328° Northwest 341 392 12,000 -660 Descending Cleveland Center
06:41PM 41.7736 -83.1086 332° Northwest 327 376 11,700 -900 Descending Cleveland Center
06:41PM 41.8311 -83.1497 332° Northwest 341 392 11,100 -600 Descending Cleveland Center
06:42PM 41.8600 -83.1592 346° North 348 400 11,100  Level Cleveland Center
06:43PM 41.9511 -83.1908 346° North 330 380 11,100  Level Cleveland Center
06:43PM 41.9883 -83.2008 349° North 321 369 11,100  Level Cleveland Center
06:44PM 42.0236 -83.2133 345° North 249 287 11,100  Level Cleveland Center
06:45PM 42.0881 -83.2189 356° North 237 273 11,100 -120 Level Cleveland Center
06:45PM 42.1403 -83.2183 360° North 242 278 10,900 -600 Descending Cleveland Center
06:46PM 42.1589 -83.2189 359° North 238 274 10,500 -1,440 Descending Cleveland Center
06:46PM 42.2028 -83.2125 North 230 265 9,500 -1,440 Descending Cleveland Center
06:47PM 42.2242 -83.1964 29° Northeast 241 277 8,900 -1,440 Descending Cleveland Center
06:48PM 42.2811 -83.1594 26° Northeast 237 273 7,700 -1,380 Descending Cleveland Center
06:49PM 42.3361 -83.1225 26° Northeast 235 270 6,300 -1,380 Descending Cleveland Center
06:50PM 42.3744 -83.1803 312° West 200 230 4,900 -1,380 Descending Cleveland Center
06:51PM 42.3333 -83.2489 231° Southwest 197 227 3,300 -1,140 Descending Cleveland Center
06:52PM 42.2994 -83.2756 210° Southwest 140 161 2,500 -900 Descending Cleveland Center